sensor_id;sensor_type;location;lat;lon;timestamp;pressure;altitude;pressure_sealevel;temperature;humidity
21182;BME280;10749;46.296;7.524;2024-03-17T00:01:07;95563.16;;;12.28;44.69
21182;BME280;10749;46.296;7.524;2024-03-17T00:03:33;95563.81;;;12.30;44.58
21182;BME280;10749;46.296;7.524;2024-03-17T00:05:59;95569.16;;;12.22;45.25
21182;BME280;10749;46.296;7.524;2024-03-17T00:08:25;95559.03;;;12.18;44.67
21182;BME280;10749;46.296;7.524;2024-03-17T00:10:51;95569.94;;;12.31;44.19
21182;BME280;10749;46.296;7.524;2024-03-17T00:13:17;95563.34;;;12.19;44.59
21182;BME280;10749;46.296;7.524;2024-03-17T00:15:43;95563.00;;;12.30;44.04
21182;BME280;10749;46.296;7.524;2024-03-17T00:18:12;95566.66;;;12.29;44.14
21182;BME280;10749;46.296;7.524;2024-03-17T00:20:37;95566.69;;;12.21;44.52
21182;BME280;10749;46.296;7.524;2024-03-17T00:23:03;95565.34;;;12.25;43.86
21182;BME280;10749;46.296;7.524;2024-03-17T00:25:32;95564.66;;;12.23;44.14
21182;BME280;10749;46.296;7.524;2024-03-17T00:27:57;95563.47;;;12.33;43.68
21182;BME280;10749;46.296;7.524;2024-03-17T00:30:23;95548.38;;;12.26;44.19
21182;BME280;10749;46.296;7.524;2024-03-17T00:32:48;95554.00;;;12.31;42.89
21182;BME280;10749;46.296;7.524;2024-03-17T00:35:13;95555.03;;;12.22;43.35
21182;BME280;10749;46.296;7.524;2024-03-17T00:37:46;95559.38;;;12.15;44.06
21182;BME280;10749;46.296;7.524;2024-03-17T00:40:11;95558.41;;;12.16;44.14
21182;BME280;10749;46.296;7.524;2024-03-17T00:42:37;95545.81;;;12.10;44.31
21182;BME280;10749;46.296;7.524;2024-03-17T00:45:02;95553.47;;;12.05;44.76
21182;BME280;10749;46.296;7.524;2024-03-17T00:47:30;95543.81;;;12.12;43.72
21182;BME280;10749;46.296;7.524;2024-03-17T00:49:55;95546.47;;;12.12;43.10
21182;BME280;10749;46.296;7.524;2024-03-17T00:52:21;95539.19;;;12.06;43.57
21182;BME280;10749;46.296;7.524;2024-03-17T00:54:47;95552.16;;;12.00;44.24
21182;BME280;10749;46.296;7.524;2024-03-17T00:57:13;95539.41;;;11.96;44.09
21182;BME280;10749;46.296;7.524;2024-03-17T00:59:38;95538.09;;;11.92;44.62
21182;BME280;10749;46.296;7.524;2024-03-17T01:02:04;95536.63;;;11.81;45.21
21182;BME280;10749;46.296;7.524;2024-03-17T01:04:29;95542.63;;;11.75;45.70
21182;BME280;10749;46.296;7.524;2024-03-17T01:06:57;95539.63;;;11.70;45.36
21182;BME280;10749;46.296;7.524;2024-03-17T01:09:22;95529.53;;;11.74;44.63
21182;BME280;10749;46.296;7.524;2024-03-17T01:11:48;95532.66;;;11.69;45.40
21182;BME280;10749;46.296;7.524;2024-03-17T01:14:13;95521.56;;;11.66;45.48
21182;BME280;10749;46.296;7.524;2024-03-17T01:16:38;95529.00;;;11.70;45.35
21182;BME280;10749;46.296;7.524;2024-03-17T01:19:03;95522.72;;;11.63;45.45
21182;BME280;10749;46.296;7.524;2024-03-17T01:21:29;95511.97;;;11.56;45.67
21182;BME280;10749;46.296;7.524;2024-03-17T01:23:55;95515.94;;;11.52;46.10
21182;BME280;10749;46.296;7.524;2024-03-17T01:26:20;95524.09;;;11.51;45.96
21182;BME280;10749;46.296;7.524;2024-03-17T01:28:45;95523.41;;;11.49;46.48
21182;BME280;10749;46.296;7.524;2024-03-17T01:31:10;95513.47;;;11.43;46.57
21182;BME280;10749;46.296;7.524;2024-03-17T01:33:36;95508.19;;;11.35;46.39
21182;BME280;10749;46.296;7.524;2024-03-17T01:36:01;95511.50;;;11.37;45.77
21182;BME280;10749;46.296;7.524;2024-03-17T01:38:27;95505.38;;;11.36;46.31
21182;BME280;10749;46.296;7.524;2024-03-17T01:40:52;95503.22;;;11.32;47.18
21182;BME280;10749;46.296;7.524;2024-03-17T01:43:17;95502.41;;;11.31;46.68
21182;BME280;10749;46.296;7.524;2024-03-17T01:45:43;95500.25;;;11.27;46.21
21182;BME280;10749;46.296;7.524;2024-03-17T01:48:13;95500.25;;;11.27;46.64
21182;BME280;10749;46.296;7.524;2024-03-17T01:50:44;95498.94;;;11.23;47.10
21182;BME280;10749;46.296;7.524;2024-03-17T01:53:12;95502.75;;;11.28;46.92
21182;BME280;10749;46.296;7.524;2024-03-17T01:55:39;95488.34;;;11.23;47.20
21182;BME280;10749;46.296;7.524;2024-03-17T01:58:05;95496.78;;;11.18;47.26
21182;BME280;10749;46.296;7.524;2024-03-17T02:00:36;95493.63;;;11.23;47.21
21182;BME280;10749;46.296;7.524;2024-03-17T02:03:06;95481.22;;;11.15;47.51
21182;BME280;10749;46.296;7.524;2024-03-17T02:05:34;95493.84;;;11.13;47.60
21182;BME280;10749;46.296;7.524;2024-03-17T02:07:59;95507.56;;;11.08;47.75
21182;BME280;10749;46.296;7.524;2024-03-17T02:10:25;95488.69;;;11.11;47.00
21182;BME280;10749;46.296;7.524;2024-03-17T02:12:50;95507.22;;;11.20;47.11
21182;BME280;10749;46.296;7.524;2024-03-17T02:15:16;95507.22;;;11.20;46.38
21182;BME280;10749;46.296;7.524;2024-03-17T02:17:41;95501.59;;;11.15;46.99
21182;BME280;10749;46.296;7.524;2024-03-17T02:20:07;95508.22;;;11.19;47.11
21182;BME280;10749;46.296;7.524;2024-03-17T02:22:34;95502.44;;;11.15;46.96
21182;BME280;10749;46.296;7.524;2024-03-17T02:25:00;95489.03;;;11.08;47.51
21182;BME280;10749;46.296;7.524;2024-03-17T02:27:25;95492.31;;;11.10;46.99
21182;BME280;10749;46.296;7.524;2024-03-17T02:29:50;95492.81;;;11.06;47.13
21182;BME280;10749;46.296;7.524;2024-03-17T02:32:16;95492.34;;;11.02;47.16
21182;BME280;10749;46.296;7.524;2024-03-17T02:34:42;95480.25;;;11.00;47.42
21182;BME280;10749;46.296;7.524;2024-03-17T02:37:09;95479.28;;;11.01;47.32
21182;BME280;10749;46.296;7.524;2024-03-17T02:39:35;95490.53;;;10.95;47.58
21182;BME280;10749;46.296;7.524;2024-03-17T02:42:05;95485.72;;;10.98;47.13
21182;BME280;10749;46.296;7.524;2024-03-17T02:44:31;95482.06;;;10.99;47.34
21182;BME280;10749;46.296;7.524;2024-03-17T02:47:00;95471.97;;;10.95;47.59
21182;BME280;10749;46.296;7.524;2024-03-17T02:49:27;95475.81;;;10.84;47.95
21182;BME280;10749;46.296;7.524;2024-03-17T02:51:54;95470.16;;;10.79;48.08
21182;BME280;10749;46.296;7.524;2024-03-17T02:54:20;95479.78;;;10.72;48.39
21182;BME280;10749;46.296;7.524;2024-03-17T02:56:46;95476.44;;;10.70;48.38
21182;BME280;10749;46.296;7.524;2024-03-17T02:59:12;95486.88;;;10.80;47.50
21182;BME280;10749;46.296;7.524;2024-03-17T03:01:37;95474.13;;;10.83;47.15
21182;BME280;10749;46.296;7.524;2024-03-17T03:04:03;95460.06;;;10.75;48.06
21182;BME280;10749;46.296;7.524;2024-03-17T03:06:28;95466.84;;;10.77;47.78
21182;BME280;10749;46.296;7.524;2024-03-17T03:08:53;95475.63;;;10.78;47.89
21182;BME280;10749;46.296;7.524;2024-03-17T03:11:18;95485.88;;;10.73;48.03
21182;BME280;10749;46.296;7.524;2024-03-17T03:13:44;95480.75;;;10.63;48.26
21182;BME280;10749;46.296;7.524;2024-03-17T03:16:11;95481.75;;;10.62;48.18
21182;BME280;10749;46.296;7.524;2024-03-17T03:18:37;95469.47;;;10.53;48.46
21182;BME280;10749;46.296;7.524;2024-03-17T03:21:04;95476.44;;;10.54;48.63
21182;BME280;10749;46.296;7.524;2024-03-17T03:23:30;95478.94;;;10.55;48.56
21182;BME280;10749;46.296;7.524;2024-03-17T03:26:00;95477.28;;;10.54;48.43
21182;BME280;10749;46.296;7.524;2024-03-17T03:28:28;95492.00;;;10.57;48.35
21182;BME280;10749;46.296;7.524;2024-03-17T03:30:54;95481.41;;;10.57;48.09
21182;BME280;10749;46.296;7.524;2024-03-17T03:33:20;95485.22;;;10.62;47.92
21182;BME280;10749;46.296;7.524;2024-03-17T03:35:45;95486.69;;;10.57;48.66
21182;BME280;10749;46.296;7.524;2024-03-17T03:38:14;95488.03;;;10.61;48.22
21182;BME280;10749;46.296;7.524;2024-03-17T03:40:43;95498.31;;;10.72;47.26
21182;BME280;10749;46.296;7.524;2024-03-17T03:43:09;95488.22;;;10.76;47.55
21182;BME280;10749;46.296;7.524;2024-03-17T03:45:35;95485.72;;;10.74;47.98
21182;BME280;10749;46.296;7.524;2024-03-17T03:48:01;95490.03;;;10.75;48.45
21182;BME280;10749;46.296;7.524;2024-03-17T03:50:28;95487.38;;;10.67;48.73
21182;BME280;10749;46.296;7.524;2024-03-17T03:52:53;95491.34;;;10.71;48.38
21182;BME280;10749;46.296;7.524;2024-03-17T03:55:19;95492.19;;;10.63;48.57
21182;BME280;10749;46.296;7.524;2024-03-17T03:57:45;95497.47;;;10.63;48.62
21182;BME280;10749;46.296;7.524;2024-03-17T04:00:17;95485.38;;;10.53;48.57
21182;BME280;10749;46.296;7.524;2024-03-17T04:02:49;95497.47;;;10.55;48.61
21182;BME280;10749;46.296;7.524;2024-03-17T04:05:15;95495.47;;;10.57;47.64
21182;BME280;10749;46.296;7.524;2024-03-17T04:07:41;95491.16;;;10.56;47.17
21182;BME280;10749;46.296;7.524;2024-03-17T04:10:08;95488.84;;;10.45;48.44
21182;BME280;10749;46.296;7.524;2024-03-17T04:12:34;95484.53;;;10.52;47.91
21182;BME280;10749;46.296;7.524;2024-03-17T04:15:00;95490.66;;;10.53;48.23
21182;BME280;10749;46.296;7.524;2024-03-17T04:17:26;95484.38;;;10.54;48.53
21182;BME280;10749;46.296;7.524;2024-03-17T04:19:55;95480.41;;;10.50;48.52
21182;BME280;10749;46.296;7.524;2024-03-17T04:22:21;95473.78;;;10.46;48.69
21182;BME280;10749;46.296;7.524;2024-03-17T04:24:51;95482.56;;;10.54;48.11
21182;BME280;10749;46.296;7.524;2024-03-17T04:27:28;95487.38;;;10.51;48.47
21182;BME280;10749;46.296;7.524;2024-03-17T04:29:54;95478.25;;;10.53;48.55
21182;BME280;10749;46.296;7.524;2024-03-17T04:32:21;95478.09;;;10.55;48.73
21182;BME280;10749;46.296;7.524;2024-03-17T04:34:46;95478.41;;;10.52;48.71
21182;BME280;10749;46.296;7.524;2024-03-17T04:37:12;95477.09;;;10.48;48.95
21182;BME280;10749;46.296;7.524;2024-03-17T04:39:41;95492.66;;;10.51;48.17
21182;BME280;10749;46.296;7.524;2024-03-17T04:42:08;95492.00;;;10.57;47.62
21182;BME280;10749;46.296;7.524;2024-03-17T04:44:34;95493.66;;;10.50;48.57
21182;BME280;10749;46.296;7.524;2024-03-17T04:46:59;95495.47;;;10.49;48.41
21182;BME280;10749;46.296;7.524;2024-03-17T04:49:24;95501.25;;;10.53;48.06
21182;BME280;10749;46.296;7.524;2024-03-17T04:51:50;95497.59;;;10.46;48.69
21182;BME280;10749;46.296;7.524;2024-03-17T04:54:15;95503.56;;;10.48;48.77
21182;BME280;10749;46.296;7.524;2024-03-17T04:56:41;95500.25;;;10.46;48.56
21182;BME280;10749;46.296;7.524;2024-03-17T04:59:06;95501.44;;;10.51;47.87
21182;BME280;10749;46.296;7.524;2024-03-17T05:01:32;95504.88;;;10.52;47.71
21182;BME280;10749;46.296;7.524;2024-03-17T05:04:04;95511.66;;;10.46;48.05
21182;BME280;10749;46.296;7.524;2024-03-17T05:06:29;95512.50;;;10.39;48.80
21182;BME280;10749;46.296;7.524;2024-03-17T05:08:55;95510.13;;;10.36;49.00
21182;BME280;10749;46.296;7.524;2024-03-17T05:11:20;95506.81;;;10.26;49.31
21182;BME280;10749;46.296;7.524;2024-03-17T05:13:46;95504.19;;;10.26;49.51
21182;BME280;10749;46.296;7.524;2024-03-17T05:16:11;95494.44;;;10.26;49.49
21182;BME280;10749;46.296;7.524;2024-03-17T05:18:36;95489.94;;;10.18;49.72
21182;BME280;10749;46.296;7.524;2024-03-17T05:21:05;95487.81;;;10.22;49.62
21182;BME280;10749;46.296;7.524;2024-03-17T05:23:33;95494.22;;;10.19;49.86
21182;BME280;10749;46.296;7.524;2024-03-17T05:25:59;95498.47;;;10.12;49.88
21182;BME280;10749;46.296;7.524;2024-03-17T05:28:25;95482.63;;;10.12;49.90
21182;BME280;10749;46.296;7.524;2024-03-17T05:30:51;95492.59;;;10.18;49.91
21182;BME280;10749;46.296;7.524;2024-03-17T05:33:18;95489.56;;;10.13;50.02
21182;BME280;10749;46.296;7.524;2024-03-17T05:35:57;95491.38;;;10.13;50.06
21182;BME280;10749;46.296;7.524;2024-03-17T05:38:27;95488.09;;;10.19;49.68
21182;BME280;10749;46.296;7.524;2024-03-17T05:41:00;95488.94;;;10.19;49.70
21182;BME280;10749;46.296;7.524;2024-03-17T05:43:30;95495.41;;;10.17;49.83
21182;BME280;10749;46.296;7.524;2024-03-17T05:46:00;95496.22;;;10.17;50.01
21182;BME280;10749;46.296;7.524;2024-03-17T05:48:26;95499.72;;;10.26;49.43
21182;BME280;10749;46.296;7.524;2024-03-17T05:50:52;95504.19;;;10.26;49.59
21182;BME280;10749;46.296;7.524;2024-03-17T05:53:18;95496.91;;;10.28;49.36
21182;BME280;10749;46.296;7.524;2024-03-17T05:55:44;95499.56;;;10.36;49.53
21182;BME280;10749;46.296;7.524;2024-03-17T05:58:10;95499.25;;;10.39;49.48
21182;BME280;10749;46.296;7.524;2024-03-17T06:00:36;95503.00;;;10.28;49.90
21182;BME280;10749;46.296;7.524;2024-03-17T06:03:03;95501.34;;;10.27;50.23
21182;BME280;10749;46.296;7.524;2024-03-17T06:05:32;95492.63;;;10.27;49.98
21182;BME280;10749;46.296;7.524;2024-03-17T06:07:58;95498.91;;;10.34;49.92
21182;BME280;10749;46.296;7.524;2024-03-17T06:10:23;95502.91;;;10.46;49.57
21182;BME280;10749;46.296;7.524;2024-03-17T06:12:50;95505.69;;;10.36;50.16
21182;BME280;10749;46.296;7.524;2024-03-17T06:15:16;95507.69;;;10.34;50.16
21182;BME280;10749;46.296;7.524;2024-03-17T06:17:41;95506.19;;;10.40;50.04
21182;BME280;10749;46.296;7.524;2024-03-17T06:20:10;95510.50;;;10.41;50.01
21182;BME280;10749;46.296;7.524;2024-03-17T06:22:38;95511.16;;;10.43;50.26
21182;BME280;10749;46.296;7.524;2024-03-17T06:25:04;95503.25;;;10.51;49.91
21182;BME280;10749;46.296;7.524;2024-03-17T06:27:30;95508.22;;;10.54;49.54
21182;BME280;10749;46.296;7.524;2024-03-17T06:29:56;95510.22;;;10.60;50.12
21182;BME280;10749;46.296;7.524;2024-03-17T06:32:21;95503.91;;;10.61;50.04
21182;BME280;10749;46.296;7.524;2024-03-17T06:34:46;95503.06;;;10.69;50.26
21182;BME280;10749;46.296;7.524;2024-03-17T06:37:12;95517.66;;;10.73;50.22
21182;BME280;10749;46.296;7.524;2024-03-17T06:39:37;95504.41;;;10.73;50.58
21182;BME280;10749;46.296;7.524;2024-03-17T06:42:02;95509.53;;;10.74;50.51
21182;BME280;10749;46.296;7.524;2024-03-17T06:44:28;95516.50;;;10.75;50.13
21182;BME280;10749;46.296;7.524;2024-03-17T06:46:55;95518.81;;;10.86;49.70
21182;BME280;10749;46.296;7.524;2024-03-17T06:49:21;95517.50;;;10.82;50.30
21182;BME280;10749;46.296;7.524;2024-03-17T06:51:46;95510.03;;;10.78;50.52
21182;BME280;10749;46.296;7.524;2024-03-17T06:54:13;95505.25;;;10.81;50.54
21182;BME280;10749;46.296;7.524;2024-03-17T06:56:38;95508.06;;;10.80;50.35
21182;BME280;10749;46.296;7.524;2024-03-17T06:59:04;95509.41;;;10.84;49.88
21182;BME280;10749;46.296;7.524;2024-03-17T07:01:29;95509.06;;;10.87;50.10
21182;BME280;10749;46.296;7.524;2024-03-17T07:03:54;95518.47;;;10.89;50.06
21182;BME280;10749;46.296;7.524;2024-03-17T07:06:19;95512.88;;;10.92;50.13
21182;BME280;10749;46.296;7.524;2024-03-17T07:08:45;95513.88;;;10.99;50.35
21182;BME280;10749;46.296;7.524;2024-03-17T07:11:10;95506.25;;;11.04;50.47
21182;BME280;10749;46.296;7.524;2024-03-17T07:13:36;95519.63;;;11.19;49.81
21182;BME280;10749;46.296;7.524;2024-03-17T07:16:04;95520.81;;;11.25;49.61
21182;BME280;10749;46.296;7.524;2024-03-17T07:18:33;95513.00;;;11.23;50.09
21182;BME280;10749;46.296;7.524;2024-03-17T07:20:59;95514.81;;;11.23;50.12
21182;BME280;10749;46.296;7.524;2024-03-17T07:23:25;95521.13;;;11.30;50.07
21182;BME280;10749;46.296;7.524;2024-03-17T07:25:55;95523.78;;;11.38;50.00
21182;BME280;10749;46.296;7.524;2024-03-17T07:28:21;95524.25;;;11.41;50.10
21182;BME280;10749;46.296;7.524;2024-03-17T07:30:51;95529.38;;;11.51;49.96
21182;BME280;10749;46.296;7.524;2024-03-17T07:33:17;95531.69;;;11.62;49.80
21182;BME280;10749;46.296;7.524;2024-03-17T07:35:48;95530.97;;;11.68;49.32
21182;BME280;10749;46.296;7.524;2024-03-17T07:38:14;95533.00;;;11.66;49.51
21182;BME280;10749;46.296;7.524;2024-03-17T07:40:40;95533.97;;;11.65;49.74
21182;BME280;10749;46.296;7.524;2024-03-17T07:43:06;95533.81;;;11.67;49.70
21182;BME280;10749;46.296;7.524;2024-03-17T07:45:31;95535.66;;;11.58;50.02
21182;BME280;10749;46.296;7.524;2024-03-17T07:47:56;95537.63;;;11.64;49.97
21182;BME280;10749;46.296;7.524;2024-03-17T07:50:21;95539.78;;;11.61;50.39
21182;BME280;10749;46.296;7.524;2024-03-17T07:52:47;95543.59;;;11.66;50.28
21182;BME280;10749;46.296;7.524;2024-03-17T07:55:12;95541.94;;;11.81;49.90
21182;BME280;10749;46.296;7.524;2024-03-17T07:57:38;95536.28;;;11.92;50.20
21182;BME280;10749;46.296;7.524;2024-03-17T08:00:04;95530.94;;;12.00;49.89
21182;BME280;10749;46.296;7.524;2024-03-17T08:02:29;95518.66;;;11.99;49.88
21182;BME280;10749;46.296;7.524;2024-03-17T08:04:54;95519.31;;;12.01;49.71
21182;BME280;10749;46.296;7.524;2024-03-17T08:07:20;95524.31;;;11.96;49.99
21182;BME280;10749;46.296;7.524;2024-03-17T08:09:45;95525.47;;;11.94;49.72
21182;BME280;10749;46.296;7.524;2024-03-17T08:12:11;95528.63;;;11.89;50.02
21182;BME280;10749;46.296;7.524;2024-03-17T08:14:36;95514.38;;;11.90;49.82
21182;BME280;10749;46.296;7.524;2024-03-17T08:17:02;95519.81;;;11.97;49.95
21182;BME280;10749;46.296;7.524;2024-03-17T08:19:27;95521.00;;;11.94;49.76
21182;BME280;10749;46.296;7.524;2024-03-17T08:21:53;95525.97;;;11.97;49.86
21182;BME280;10749;46.296;7.524;2024-03-17T08:24:18;95518.31;;;12.02;49.78
21182;BME280;10749;46.296;7.524;2024-03-17T08:26:44;95517.28;;;12.12;50.02
21182;BME280;10749;46.296;7.524;2024-03-17T08:29:11;95517.28;;;12.12;49.81
21182;BME280;10749;46.296;7.524;2024-03-17T08:31:36;95501.72;;;12.09;49.76
21182;BME280;10749;46.296;7.524;2024-03-17T08:34:02;95520.28;;;12.09;49.87
21182;BME280;10749;46.296;7.524;2024-03-17T08:36:27;95519.28;;;12.10;49.51
21182;BME280;10749;46.296;7.524;2024-03-17T08:38:53;95501.22;;;12.05;50.00
21182;BME280;10749;46.296;7.524;2024-03-17T08:41:20;95510.78;;;12.14;49.55
21182;BME280;10749;46.296;7.524;2024-03-17T08:43:45;95511.97;;;12.12;49.73
21182;BME280;10749;46.296;7.524;2024-03-17T08:46:11;95516.94;;;12.15;49.60
21182;BME280;10749;46.296;7.524;2024-03-17T08:48:39;95508.28;;;12.21;49.16
21182;BME280;10749;46.296;7.524;2024-03-17T08:51:06;95497.94;;;12.34;49.56
21182;BME280;10749;46.296;7.524;2024-03-17T08:53:32;95505.19;;;12.40;48.95
21182;BME280;10749;46.296;7.524;2024-03-17T08:55:59;95500.56;;;12.42;48.55
21182;BME280;10749;46.296;7.524;2024-03-17T08:58:25;95495.88;;;12.44;48.97
21182;BME280;10749;46.296;7.524;2024-03-17T09:00:50;95493.66;;;12.56;48.89
21182;BME280;10749;46.296;7.524;2024-03-17T09:03:19;95499.56;;;12.66;49.50
21182;BME280;10749;46.296;7.524;2024-03-17T09:05:46;95495.84;;;12.75;49.22
21182;BME280;10749;46.296;7.524;2024-03-17T09:08:19;95500.75;;;12.86;49.23
21182;BME280;10749;46.296;7.524;2024-03-17T09:10:47;95500.84;;;12.92;49.46
21182;BME280;10749;46.296;7.524;2024-03-17T09:13:18;95500.16;;;12.99;49.31
21182;BME280;10749;46.296;7.524;2024-03-17T09:15:54;95509.25;;;13.04;49.21
21182;BME280;10749;46.296;7.524;2024-03-17T09:18:21;95495.41;;;13.09;49.16
21182;BME280;10749;46.296;7.524;2024-03-17T09:21:04;95497.75;;;13.12;49.27
21182;BME280;10749;46.296;7.524;2024-03-17T09:23:30;95489.50;;;13.21;48.65
21182;BME280;10749;46.296;7.524;2024-03-17T09:26:00;95486.69;;;13.23;48.34
21182;BME280;10749;46.296;7.524;2024-03-17T09:28:26;95492.16;;;13.21;48.41
21182;BME280;10749;46.296;7.524;2024-03-17T09:30:53;95478.41;;;13.18;48.64
21182;BME280;10749;46.296;7.524;2024-03-17T09:33:22;95478.63;;;13.31;48.73
21182;BME280;10749;46.296;7.524;2024-03-17T09:36:04;95474.81;;;13.48;48.34
21182;BME280;10749;46.296;7.524;2024-03-17T09:38:31;95477.38;;;13.56;48.52
21182;BME280;10749;46.296;7.524;2024-03-17T09:40:57;95472.59;;;13.52;48.45
21182;BME280;10749;46.296;7.524;2024-03-17T09:43:24;95474.56;;;13.58;48.33
21182;BME280;10749;46.296;7.524;2024-03-17T09:45:50;95475.00;;;13.61;48.54
21182;BME280;10749;46.296;7.524;2024-03-17T09:48:19;95479.88;;;13.58;48.30
21182;BME280;10749;46.296;7.524;2024-03-17T09:50:55;95474.63;;;13.64;47.98
21182;BME280;10749;46.296;7.524;2024-03-17T09:55:57;95474.34;;;13.59;47.53
21182;BME280;10749;46.296;7.524;2024-03-17T09:58:22;95478.19;;;13.71;47.74
21182;BME280;10749;46.296;7.524;2024-03-17T10:00:48;95474.72;;;13.71;47.56
21182;BME280;10749;46.296;7.524;2024-03-17T10:06:17;95478.94;;;13.80;47.51
21182;BME280;10749;46.296;7.524;2024-03-17T10:08:44;95472.91;;;13.86;47.25
21182;BME280;10749;46.296;7.524;2024-03-17T10:11:11;95484.16;;;14.03;47.29
21182;BME280;10749;46.296;7.524;2024-03-17T10:13:37;95479.19;;;14.00;46.96
21182;BME280;10749;46.296;7.524;2024-03-17T10:16:03;95483.44;;;13.94;47.24
21182;BME280;10749;46.296;7.524;2024-03-17T10:18:28;95484.63;;;13.92;47.31
21182;BME280;10749;46.296;7.524;2024-03-17T10:20:53;95479.88;;;13.87;47.27
21182;BME280;10749;46.296;7.524;2024-03-17T10:23:23;95477.75;;;13.82;47.26
21182;BME280;10749;46.296;7.524;2024-03-17T10:25:49;95468.66;;;13.92;47.04
21182;BME280;10749;46.296;7.524;2024-03-17T10:28:16;95469.75;;;14.12;47.15
21182;BME280;10749;46.296;7.524;2024-03-17T10:30:42;95464.22;;;14.13;47.36
21182;BME280;10749;46.296;7.524;2024-03-17T10:33:22;95468.00;;;14.19;46.88
21182;BME280;10749;46.296;7.524;2024-03-17T10:35:47;95461.44;;;14.21;46.76
21182;BME280;10749;46.296;7.524;2024-03-17T10:38:13;95462.94;;;14.24;46.82
21182;BME280;10749;46.296;7.524;2024-03-17T10:40:39;95463.19;;;14.29;46.91
21182;BME280;10749;46.296;7.524;2024-03-17T10:43:05;95474.59;;;14.23;46.63
21182;BME280;10749;46.296;7.524;2024-03-17T10:45:32;95467.59;;;14.22;46.78
21182;BME280;10749;46.296;7.524;2024-03-17T10:48:03;95474.22;;;14.26;46.80
21182;BME280;10749;46.296;7.524;2024-03-17T10:50:31;95467.22;;;14.25;46.42
21182;BME280;10749;46.296;7.524;2024-03-17T10:53:01;95463.94;;;14.23;46.38
21182;BME280;10749;46.296;7.524;2024-03-17T10:55:32;95462.66;;;14.19;46.15
21182;BME280;10749;46.296;7.524;2024-03-17T10:58:03;95458.84;;;14.07;46.35
21182;BME280;10749;46.296;7.524;2024-03-17T11:00:29;95462.13;;;14.09;46.21
21182;BME280;10749;46.296;7.524;2024-03-17T11:02:57;95446.59;;;14.12;46.41
21182;BME280;10749;46.296;7.524;2024-03-17T11:05:27;95451.38;;;14.17;46.25
21182;BME280;10749;46.296;7.524;2024-03-17T11:07:59;95454.41;;;14.14;46.09
21182;BME280;10749;46.296;7.524;2024-03-17T11:10:34;95438.16;;;14.09;46.22
21182;BME280;10749;46.296;7.524;2024-03-17T11:13:02;95440.47;;;14.12;46.21
21182;BME280;10749;46.296;7.524;2024-03-17T11:20:34;95441.25;;;14.27;46.19
21182;BME280;10749;46.296;7.524;2024-03-17T11:23:01;95439.47;;;14.34;46.09
21182;BME280;10749;46.296;7.524;2024-03-17T11:27:56;95435.72;;;14.43;45.95
21182;BME280;10749;46.296;7.524;2024-03-17T11:47:00;95405.69;;;14.49;45.41
21182;BME280;10749;46.296;7.524;2024-03-17T11:52:00;95394.94;;;14.43;45.57
21182;BME280;10749;46.296;7.524;2024-03-17T11:54:27;95397.69;;;14.49;45.74
21182;BME280;10749;46.296;7.524;2024-03-17T11:56:55;95393.81;;;14.52;45.78
21182;BME280;10749;46.296;7.524;2024-03-17T11:59:21;95386.00;;;14.50;45.50
21182;BME280;10749;46.296;7.524;2024-03-17T12:01:48;95390.50;;;14.50;45.33
21182;BME280;10749;46.296;7.524;2024-03-17T12:04:15;95383.59;;;14.55;45.45
21182;BME280;10749;46.296;7.524;2024-03-17T12:06:48;95384.00;;;14.52;45.47
21182;BME280;10749;46.296;7.524;2024-03-17T12:09:22;95381.94;;;14.54;45.46
21182;BME280;10749;46.296;7.524;2024-03-17T12:12:04;95381.63;;;14.64;45.46
21182;BME280;10749;46.296;7.524;2024-03-17T12:14:30;95371.59;;;14.66;45.29
21182;BME280;10749;46.296;7.524;2024-03-17T12:16:58;95369.75;;;14.66;45.19
21182;BME280;10749;46.296;7.524;2024-03-17T12:19:24;95374.66;;;14.63;45.14
21182;BME280;10749;46.296;7.524;2024-03-17T12:21:55;95366.88;;;14.61;45.03
21182;BME280;10749;46.296;7.524;2024-03-17T12:24:23;95380.81;;;14.63;44.97
21182;BME280;10749;46.296;7.524;2024-03-17T12:26:49;95366.88;;;14.61;45.08
21182;BME280;10749;46.296;7.524;2024-03-17T12:29:26;95364.81;;;14.63;44.89
21182;BME280;10749;46.296;7.524;2024-03-17T12:31:54;95367.88;;;14.60;44.93
21182;BME280;10749;46.296;7.524;2024-03-17T12:34:21;95359.50;;;14.63;44.63
21182;BME280;10749;46.296;7.524;2024-03-17T12:36:48;95357.47;;;14.65;44.74
21182;BME280;10749;46.296;7.524;2024-03-17T12:39:21;95359.56;;;14.70;44.96
21182;BME280;10749;46.296;7.524;2024-03-17T12:44:33;95351.38;;;14.71;44.77
21182;BME280;10749;46.296;7.524;2024-03-17T12:47:00;95343.63;;;14.76;44.68
21182;BME280;10749;46.296;7.524;2024-03-17T12:49:27;95343.88;;;14.82;44.73
21182;BME280;10749;46.296;7.524;2024-03-17T12:51:53;95339.94;;;14.77;45.10
21182;BME280;10749;46.296;7.524;2024-03-17T12:54:25;95332.56;;;14.79;44.59
21182;BME280;10749;46.296;7.524;2024-03-17T12:57:11;95320.31;;;14.85;44.60
21182;BME280;10749;46.296;7.524;2024-03-17T12:59:55;95317.44;;;14.87;44.68
21182;BME280;10749;46.296;7.524;2024-03-17T13:02:43;95314.16;;;14.85;44.62
21182;BME280;10749;46.296;7.524;2024-03-17T13:05:18;95314.59;;;14.88;44.50
21182;BME280;10749;46.296;7.524;2024-03-17T13:07:45;95308.53;;;15.01;44.44
21182;BME280;10749;46.296;7.524;2024-03-17T13:10:17;95304.22;;;15.00;44.75
21182;BME280;10749;46.296;7.524;2024-03-17T13:12:43;95297.84;;;14.94;44.73
21182;BME280;10749;46.296;7.524;2024-03-17T13:15:12;95294.78;;;14.97;44.82
21182;BME280;10749;46.296;7.524;2024-03-17T13:17:38;95298.22;;;14.91;44.72
21182;BME280;10749;46.296;7.524;2024-03-17T13:20:05;95287.56;;;14.91;44.70
21182;BME280;10749;46.296;7.524;2024-03-17T13:22:34;95276.09;;;14.91;44.63
21182;BME280;10749;46.296;7.524;2024-03-17T13:25:00;95285.09;;;14.90;44.62
21182;BME280;10749;46.296;7.524;2024-03-17T13:27:25;95283.44;;;14.89;44.50
21182;BME280;10749;46.296;7.524;2024-03-17T13:29:50;95281.78;;;14.88;44.39
21182;BME280;10749;46.296;7.524;2024-03-17T13:32:16;95278.50;;;14.86;44.50
21182;BME280;10749;46.296;7.524;2024-03-17T13:34:43;95281.38;;;14.84;44.78